createdAt,value
2023-03-06T00:00:33.622Z,2.69
2023-03-06T00:03:04.432Z,2.62
2023-03-06T00:05:35.175Z,2.61
2023-03-06T00:08:05.645Z,2.72
2023-03-06T00:10:38.673Z,2.73
2023-03-06T00:13:13.619Z,2.67
2023-03-06T00:15:44.333Z,2.67
2023-03-06T00:18:14.806Z,2.66
2023-03-06T00:20:47.022Z,2.63
2023-03-06T00:23:17.416Z,2.64
2023-03-06T00:25:50.782Z,2.67
2023-03-06T00:28:20.940Z,2.73
2023-03-06T00:30:51.250Z,2.57
2023-03-06T00:33:21.421Z,2.63
2023-03-06T00:35:51.657Z,2.58
2023-03-06T00:38:21.906Z,2.57
2023-03-06T00:40:55.661Z,2.63
2023-03-06T00:43:25.664Z,2.55
2023-03-06T00:45:55.805Z,2.65
2023-03-06T00:48:26.018Z,2.66
2023-03-06T00:50:56.247Z,2.72
2023-03-06T00:53:26.794Z,2.72
2023-03-06T00:55:59.668Z,2.75
2023-03-06T00:58:30.004Z,2.79
2023-03-06T01:01:00.420Z,2.79
2023-03-06T01:03:30.542Z,2.79
2023-03-06T01:06:01.242Z,2.78
2023-03-06T01:08:31.440Z,2.71
2023-03-06T01:11:04.489Z,2.68
2023-03-06T01:13:34.822Z,2.83
2023-03-06T01:16:14.002Z,2.75
2023-03-06T01:18:44.960Z,2.73
2023-03-06T01:21:16.073Z,2.69
2023-03-06T01:23:47.825Z,2.77
2023-03-06T01:26:20.767Z,2.69
2023-03-06T01:28:51.060Z,2.62
2023-03-06T01:31:21.281Z,2.65
2023-03-06T01:33:51.363Z,2.57
2023-03-06T01:36:21.937Z,2.56
2023-03-06T01:38:52.170Z,2.50
2023-03-06T01:41:25.228Z,2.54
2023-03-06T01:43:55.360Z,2.64
2023-03-06T01:46:42.373Z,2.61
2023-03-06T01:49:21.532Z,2.65
2023-03-06T01:51:57.941Z,2.48
2023-03-06T01:54:34.191Z,2.26
2023-03-06T01:57:12.310Z,2.21
2023-03-06T01:59:45.299Z,2.21
2023-03-06T02:02:18.496Z,2.14
2023-03-06T02:04:50.124Z,2.03
2023-03-06T02:07:24.799Z,2.05
2023-03-06T02:09:55.331Z,2.00
2023-03-06T02:12:31.536Z,1.96
2023-03-06T02:15:02.166Z,1.81
2023-03-06T02:17:32.871Z,1.85
2023-03-06T02:20:13.279Z,1.76
2023-03-06T02:22:52.881Z,1.72
2023-03-06T02:25:37.594Z,1.80
2023-03-06T02:28:09.882Z,1.81
2023-03-06T02:30:41.279Z,1.86
2023-03-06T02:33:14.445Z,1.78
2023-03-06T02:35:52.554Z,1.76
2023-03-06T02:38:29.891Z,1.83
2023-03-06T02:41:06.803Z,1.82
2023-03-06T02:43:42.590Z,1.81
2023-03-06T02:46:13.387Z,1.82
2023-03-06T02:48:43.854Z,1.90
2023-03-06T02:51:14.060Z,1.91
2023-03-06T02:53:44.242Z,1.91
2023-03-06T02:56:17.853Z,1.84
2023-03-06T02:58:48.223Z,1.87
2023-03-06T03:01:18.373Z,1.88
2023-03-06T03:03:48.639Z,1.97
2023-03-06T03:06:19.114Z,1.98
2023-03-06T03:08:49.392Z,2.03
2023-03-06T03:11:22.706Z,1.85
2023-03-06T03:13:52.853Z,1.71
2023-03-06T03:16:27.129Z,1.67
2023-03-06T03:19:01.177Z,1.77
2023-03-06T03:21:31.986Z,1.78
2023-03-06T03:24:02.556Z,1.81
2023-03-06T03:26:35.390Z,1.92
2023-03-06T03:29:11.535Z,1.83
2023-03-06T03:31:41.743Z,1.86
2023-03-06T03:34:12.043Z,1.90
2023-03-06T03:36:43.690Z,1.97
2023-03-06T03:39:15.566Z,2.05
2023-03-06T03:41:49.433Z,1.93
2023-03-06T03:44:20.113Z,1.65
2023-03-06T03:46:51.665Z,1.70
2023-03-06T03:49:25.462Z,1.78
2023-03-06T03:51:56.598Z,1.85
2023-03-06T03:54:29.247Z,1.82
2023-03-06T03:57:02.609Z,1.84
2023-03-06T03:59:36.917Z,1.81
2023-03-06T04:02:24.390Z,1.61
2023-03-06T04:05:18.502Z,1.75
2023-03-06T04:07:49.892Z,1.83
2023-03-06T04:10:20.548Z,1.83
2023-03-06T04:12:53.416Z,1.83
2023-03-06T04:15:23.995Z,1.82
2023-03-06T04:17:54.177Z,1.84
2023-03-06T04:20:28.449Z,1.89
2023-03-06T04:23:00.017Z,1.84
2023-03-06T04:25:30.441Z,1.89
2023-03-06T04:28:05.328Z,2.05
2023-03-06T04:30:36.467Z,2.01
2023-03-06T04:33:07.706Z,2.01
2023-03-06T04:35:38.676Z,2.03
2023-03-06T04:38:14.431Z,1.86
2023-03-06T04:40:45.080Z,1.89
2023-03-06T04:43:18.077Z,1.88
2023-03-06T04:45:48.342Z,1.87
2023-03-06T04:48:21.391Z,1.89
2023-03-06T04:50:51.752Z,1.87
2023-03-06T04:53:22.181Z,1.80
2023-03-06T04:55:52.678Z,1.84
2023-03-06T04:58:25.708Z,1.82
2023-03-06T05:00:55.780Z,1.73
2023-03-06T05:03:26.320Z,1.72
2023-03-06T05:05:56.455Z,1.70
2023-03-06T05:08:26.685Z,1.69
2023-03-06T05:11:00.148Z,1.72
2023-03-06T05:13:32.936Z,1.69
2023-03-06T05:16:05.669Z,1.67
2023-03-06T05:18:37.233Z,1.66
2023-03-06T05:21:08.543Z,1.64
2023-03-06T05:23:41.597Z,1.68
2023-03-06T05:26:12.996Z,1.89
2023-03-06T05:28:45.876Z,1.88
2023-03-06T05:31:16.013Z,1.81
2023-03-06T05:33:46.206Z,1.71
2023-03-06T05:36:16.381Z,1.54
2023-03-06T05:38:46.557Z,1.45
2023-03-06T05:41:17.179Z,1.21
2023-03-06T05:43:50.075Z,1.07
2023-03-06T05:46:20.325Z,1.13
2023-03-06T05:48:52.473Z,1.12
2023-03-06T05:51:22.692Z,1.07
2023-03-06T05:53:53.498Z,1.01
2023-03-06T05:56:23.854Z,1.03
2023-03-06T05:58:56.791Z,1.08
2023-03-06T06:01:28.516Z,1.11
2023-03-06T06:03:58.997Z,1.15
2023-03-06T06:06:29.142Z,1.21
2023-03-06T06:08:59.374Z,1.23
2023-03-06T06:11:29.627Z,1.26
2023-03-06T06:14:02.745Z,1.37
2023-03-06T06:16:32.989Z,1.38
2023-03-06T06:19:03.172Z,1.47
2023-03-06T06:21:36.121Z,1.60
2023-03-06T06:24:06.330Z,1.69
2023-03-06T06:26:36.393Z,1.75
2023-03-06T06:29:10.184Z,1.86
2023-03-06T06:31:40.782Z,1.91
2023-03-06T06:34:13.693Z,1.99
2023-03-06T06:36:44.307Z,2.03
2023-03-06T06:39:18.398Z,2.07
2023-03-06T06:42:05.510Z,2.10
2023-03-06T06:44:44.266Z,2.46
2023-03-06T06:47:24.103Z,2.38
2023-03-06T06:49:56.249Z,2.54
2023-03-06T06:52:29.053Z,2.47
2023-03-06T06:54:59.583Z,2.50
2023-03-06T06:57:29.723Z,2.58
2023-03-06T07:00:02.306Z,2.77
2023-03-06T07:02:32.346Z,2.76
2023-03-06T07:05:05.153Z,2.67
2023-03-06T07:07:39.351Z,2.59
2023-03-06T07:10:15.879Z,2.69
2023-03-06T07:12:46.881Z,2.86
2023-03-06T07:15:22.287Z,2.99
2023-03-06T07:17:52.296Z,2.98
2023-03-06T07:20:22.979Z,3.02
2023-03-06T07:22:53.018Z,3.09
2023-03-06T07:25:23.978Z,2.90
2023-03-06T07:27:56.030Z,2.99
2023-03-06T07:30:28.798Z,3.14
2023-03-06T07:33:01.522Z,3.12
2023-03-06T07:35:31.842Z,3.24
2023-03-06T07:38:02.350Z,3.30
2023-03-06T07:40:32.428Z,3.34
2023-03-06T07:43:18.429Z,3.34
2023-03-06T07:46:02.821Z,3.44
2023-03-06T07:48:33.588Z,3.44
2023-03-06T07:51:06.108Z,3.50
2023-03-06T07:53:38.135Z,3.47
2023-03-06T07:56:11.663Z,3.56
2023-03-06T07:58:44.607Z,3.74
2023-03-06T08:01:20.361Z,3.74
2023-03-06T08:03:51.279Z,3.80
2023-03-06T08:06:24.376Z,3.88
2023-03-06T08:08:56.944Z,3.91
2023-03-06T08:11:31.112Z,4.10
2023-03-06T08:14:02.262Z,4.40
2023-03-06T08:16:34.877Z,4.86
2023-03-06T08:22:52.882Z,5.44
2023-03-06T08:25:24.736Z,5.32
2023-03-06T08:27:55.194Z,5.67
2023-03-06T08:30:25.696Z,5.82
2023-03-06T08:32:58.559Z,6.20
2023-03-06T08:35:28.941Z,6.39
2023-03-06T08:37:59.633Z,6.42
2023-03-06T08:40:30.618Z,6.94
2023-03-06T08:43:00.794Z,7.11
2023-03-06T08:45:30.890Z,7.04
2023-03-06T08:48:03.609Z,7.30
2023-03-06T08:50:34.027Z,6.96
2023-03-06T08:53:04.277Z,6.68
2023-03-06T08:55:34.252Z,6.63
2023-03-06T08:58:04.429Z,6.81
2023-03-06T09:00:34.865Z,6.63
2023-03-06T09:03:08.915Z,6.93
2023-03-06T09:05:39.565Z,7.24
2023-03-06T09:08:10.223Z,7.22
2023-03-06T09:10:40.523Z,7.73
2023-03-06T09:13:10.533Z,7.87
2023-03-06T09:15:40.611Z,7.24
2023-03-06T09:18:13.335Z,7.32
2023-03-06T09:20:43.369Z,7.22
2023-03-06T09:23:14.080Z,7.49
2023-03-06T09:25:44.336Z,7.86
2023-03-06T09:28:14.512Z,7.49
2023-03-06T09:30:44.707Z,7.84
2023-03-06T09:33:17.843Z,7.08
2023-03-06T09:35:53.854Z,7.86
2023-03-06T09:38:26.997Z,7.07
2023-03-06T09:43:42.606Z,7.44
2023-03-06T09:46:25.665Z,7.40
2023-03-06T09:49:32.304Z,7.18
2023-03-06T09:52:15.219Z,7.04
2023-03-06T09:54:49.174Z,7.34
2023-03-06T09:57:26.551Z,6.97
2023-03-06T10:00:02.908Z,6.88
2023-03-06T10:02:43.901Z,7.23
2023-03-06T10:05:24.491Z,6.72
2023-03-06T10:08:04.490Z,6.51
2023-03-06T10:10:46.653Z,6.79
2023-03-06T10:13:27.303Z,6.79
2023-03-06T10:16:06.398Z,6.26
2023-03-06T10:18:39.108Z,6.40
2023-03-06T10:21:43.833Z,6.48
2023-03-06T10:24:36.085Z,6.31
2023-03-06T10:27:23.841Z,6.53
2023-03-06T10:30:04.759Z,6.09
2023-03-06T10:32:49.576Z,6.41
2023-03-06T10:35:24.401Z,6.22
2023-03-06T10:38:05.139Z,6.52
2023-03-06T10:40:49.246Z,6.54
2023-03-06T10:43:19.413Z,6.58
2023-03-06T10:45:53.300Z,6.21
2023-03-06T10:48:27.174Z,6.13
2023-03-06T10:51:20.308Z,6.25
2023-03-06T10:54:00.401Z,6.41
2023-03-06T10:56:34.225Z,6.72
2023-03-06T10:59:16.691Z,6.56
2023-03-06T11:01:50.107Z,6.61
2023-03-06T11:04:30.533Z,6.74
2023-03-06T11:07:11.834Z,6.47
2023-03-06T11:09:47.811Z,6.71
2023-03-06T11:12:26.790Z,6.39
2023-03-06T11:15:27.811Z,6.79
2023-03-06T11:18:04.513Z,6.70
2023-03-06T11:20:52.062Z,6.73
2023-03-06T11:23:40.576Z,6.49
2023-03-06T11:26:36.387Z,6.48
2023-03-06T11:29:29.415Z,6.82
2023-03-06T11:32:09.820Z,7.08
2023-03-06T11:34:51.073Z,6.71
2023-03-06T11:37:42.428Z,7.10
2023-03-06T11:40:26.873Z,6.75
2023-03-06T11:43:17.415Z,6.60
2023-03-06T11:45:54.318Z,7.27
2023-03-06T11:48:31.508Z,7.46
2023-03-06T11:51:15.170Z,7.01
2023-03-06T11:53:45.520Z,7.59
2023-03-06T11:56:39.126Z,7.80
2023-03-06T11:59:54.063Z,8.03
2023-03-06T12:02:47.326Z,8.76
2023-03-06T12:05:37.572Z,8.62
2023-03-06T12:08:31.472Z,8.81
2023-03-06T12:11:12.816Z,8.75
2023-03-06T12:14:04.313Z,9.09
2023-03-06T12:17:07.561Z,8.55
2023-03-06T12:20:01.843Z,8.75
2023-03-06T12:23:02.557Z,9.29
2023-03-06T12:25:46.356Z,9.29
2023-03-06T12:28:51.533Z,8.92
2023-03-06T12:31:40.841Z,9.11
2023-03-06T12:34:52.303Z,9.36
2023-03-06T12:37:37.612Z,8.78
2023-03-06T12:40:42.743Z,9.47
2023-03-06T12:43:46.229Z,8.90
2023-03-06T12:46:21.585Z,8.92
2023-03-06T12:49:06.105Z,9.37
2023-03-06T12:51:40.889Z,9.84
2023-03-06T12:54:17.138Z,9.12
2023-03-06T12:56:48.084Z,8.46
2023-03-06T12:59:48.352Z,7.58
2023-03-06T13:02:58.196Z,7.60
2023-03-06T13:06:06.436Z,7.20
2023-03-06T13:09:17.943Z,6.93
2023-03-06T13:12:29.002Z,6.80
2023-03-06T13:15:02.712Z,6.77
2023-03-06T13:17:40.488Z,7.33
2023-03-06T13:20:40.501Z,7.87
2023-03-06T13:23:51.822Z,7.76
2023-03-06T13:26:58.171Z,7.96
2023-03-06T13:30:09.139Z,7.94
2023-03-06T13:32:39.582Z,7.66
2023-03-06T13:35:51.630Z,7.28
2023-03-06T13:38:56.317Z,7.08
2023-03-06T13:42:00.865Z,7.18
2023-03-06T13:44:46.086Z,6.94
2023-03-06T13:48:10.703Z,6.86
2023-03-06T13:50:50.893Z,7.03
2023-03-06T13:54:09.544Z,7.00
2023-03-06T13:57:13.056Z,7.21
2023-03-06T14:00:38.546Z,7.08
2023-03-06T14:03:47.678Z,6.87
2023-03-06T14:06:54.111Z,6.27
2023-03-06T14:09:33.819Z,6.17
2023-03-06T14:12:17.621Z,6.19
2023-03-06T14:14:55.098Z,6.42
2023-03-06T14:17:34.197Z,6.56
2023-03-06T14:20:16.152Z,6.62
2023-03-06T14:22:46.460Z,6.90
2023-03-06T14:25:33.073Z,6.81
2023-03-06T14:28:14.029Z,7.11
2023-03-06T14:30:53.177Z,7.18
2023-03-06T14:33:47.389Z,6.84
2023-03-06T14:36:20.977Z,6.94
2023-03-06T14:38:56.019Z,6.79
2023-03-06T14:41:29.799Z,6.75
2023-03-06T14:44:21.592Z,7.07
2023-03-06T14:46:55.144Z,7.00
2023-03-06T14:49:28.416Z,6.79
2023-03-06T14:52:02.635Z,6.49
2023-03-06T14:54:38.180Z,6.29
2023-03-06T14:57:15.391Z,6.28
2023-03-06T14:59:55.874Z,6.39
2023-03-06T15:02:32.904Z,6.26
2023-03-06T15:05:09.025Z,6.28
2023-03-06T15:07:39.235Z,5.95
2023-03-06T15:10:22.465Z,5.96
2023-03-06T15:12:52.995Z,5.87
2023-03-06T15:15:44.352Z,5.73
2023-03-06T15:18:34.045Z,5.64
2023-03-06T15:21:18.774Z,5.55
2023-03-06T15:23:51.374Z,5.66
2023-03-06T15:26:34.548Z,5.70
2023-03-06T15:29:23.965Z,5.78
2023-03-06T15:32:18.849Z,5.69
2023-03-06T15:34:49.188Z,5.58
2023-03-06T15:37:30.948Z,5.37
2023-03-06T15:40:22.332Z,5.23
2023-03-06T15:43:00.344Z,4.99
2023-03-06T15:45:32.174Z,4.89
2023-03-06T15:48:05.607Z,4.94
2023-03-06T15:50:36.047Z,4.89
2023-03-06T15:53:06.733Z,4.81
2023-03-06T15:55:40.543Z,4.81
2023-03-06T15:58:18.133Z,4.73
2023-03-06T16:00:48.400Z,4.63
2023-03-06T16:03:21.948Z,4.56
2023-03-06T16:05:52.120Z,4.48
2023-03-06T16:08:22.309Z,4.44
2023-03-06T16:10:53.257Z,4.39
2023-03-06T16:13:29.980Z,4.40
2023-03-06T16:16:00.135Z,4.59
2023-03-06T16:18:33.050Z,4.51
2023-03-06T16:21:03.104Z,4.35
2023-03-06T16:23:33.121Z,4.24
2023-03-06T16:26:03.395Z,4.14
2023-03-06T16:28:40.908Z,4.22
2023-03-06T16:31:15.105Z,4.13
2023-03-06T16:33:47.773Z,4.07
2023-03-06T16:36:23.499Z,4.01
2023-03-06T16:38:55.141Z,4.08
2023-03-06T16:41:25.470Z,4.04
2023-03-06T16:43:55.495Z,4.05
2023-03-06T16:46:28.061Z,4.02
2023-03-06T16:49:09.599Z,3.85
2023-03-06T16:51:40.552Z,3.91
2023-03-06T16:54:10.697Z,3.85
2023-03-06T16:56:40.887Z,3.76
2023-03-06T16:59:12.184Z,3.78
2023-03-06T17:01:45.365Z,3.77
2023-03-06T17:04:18.033Z,3.74
2023-03-06T17:06:48.236Z,3.64
2023-03-06T17:09:18.376Z,3.68
2023-03-06T17:11:48.437Z,3.80
2023-03-06T17:14:18.539Z,3.74
2023-03-06T17:16:48.740Z,3.59
2023-03-06T17:19:21.770Z,3.64
2023-03-06T17:21:52.038Z,3.68
2023-03-06T17:24:22.112Z,3.57
2023-03-06T17:26:52.625Z,3.51
2023-03-06T17:29:23.021Z,3.53
2023-03-06T17:31:53.110Z,3.46
2023-03-06T17:34:25.841Z,3.48
2023-03-06T17:36:56.478Z,3.54
2023-03-06T17:39:26.839Z,3.57
2023-03-06T17:41:56.987Z,3.53
2023-03-06T17:44:27.148Z,3.54
2023-03-06T17:46:57.137Z,3.51
2023-03-06T17:49:31.184Z,3.45
2023-03-06T17:52:04.485Z,3.48
2023-03-06T17:54:36.324Z,3.45
2023-03-06T17:57:07.011Z,3.32
2023-03-06T17:59:37.393Z,3.29
2023-03-06T18:02:08.568Z,3.30
2023-03-06T18:04:41.598Z,3.31
2023-03-06T18:07:12.554Z,3.25
2023-03-06T18:09:45.982Z,3.30
2023-03-06T18:12:16.217Z,3.28
2023-03-06T18:14:47.860Z,3.21
2023-03-06T18:17:18.310Z,3.23
2023-03-06T18:19:51.166Z,3.20
2023-03-06T18:22:21.320Z,3.24
2023-03-06T18:24:52.125Z,3.16
2023-03-06T18:27:22.449Z,3.19
2023-03-06T18:29:52.729Z,3.28
2023-03-06T18:32:23.056Z,3.34
2023-03-06T18:34:56.001Z,3.14
2023-03-06T18:37:26.628Z,3.20
2023-03-06T18:39:56.908Z,3.24
2023-03-06T18:42:27.188Z,3.32
2023-03-06T18:44:57.594Z,3.38
2023-03-06T18:47:28.118Z,3.36
2023-03-06T18:50:03.015Z,3.31
2023-03-06T18:52:33.070Z,3.25
2023-03-06T18:55:03.731Z,3.35
2023-03-06T18:57:34.203Z,3.28
2023-03-06T19:00:04.832Z,3.31
2023-03-06T19:02:35.082Z,3.28
2023-03-06T19:05:09.983Z,3.39
2023-03-06T19:07:40.327Z,3.42
2023-03-06T19:10:12.956Z,3.44
2023-03-06T19:12:43.130Z,3.36
2023-03-06T19:15:14.000Z,3.34
2023-03-06T19:17:44.286Z,3.24
2023-03-06T19:20:18.327Z,3.10
2023-03-06T19:22:48.291Z,3.20
2023-03-06T19:25:19.058Z,3.16
2023-03-06T19:27:49.473Z,3.18
2023-03-06T19:30:25.582Z,3.19
2023-03-06T19:32:56.565Z,3.16
2023-03-06T19:35:30.802Z,3.16
2023-03-06T19:38:00.938Z,3.28
2023-03-06T19:40:31.949Z,3.32
2023-03-06T19:43:02.162Z,3.19
2023-03-06T19:45:32.330Z,3.09
2023-03-06T19:48:05.485Z,3.16
2023-03-06T19:50:38.251Z,3.16
2023-03-06T19:53:08.506Z,3.13
2023-03-06T19:55:38.854Z,2.97
2023-03-06T19:58:09.127Z,3.14
2023-03-06T20:00:39.833Z,3.24
2023-03-06T20:03:09.879Z,3.24
2023-03-06T20:05:50.011Z,3.33
2023-03-06T20:08:20.803Z,3.26
2023-03-06T20:10:51.766Z,3.21
2023-03-06T20:13:21.891Z,3.12
2023-03-06T20:15:52.066Z,3.21
2023-03-06T20:18:22.125Z,3.16
2023-03-06T20:21:04.690Z,3.17
2023-03-06T20:23:36.760Z,3.10
2023-03-06T20:26:09.634Z,3.10
2023-03-06T20:28:40.520Z,3.10
2023-03-06T20:31:13.446Z,3.03
2023-03-06T20:33:43.557Z,2.91
2023-03-06T20:36:20.037Z,2.98
2023-03-06T20:38:51.153Z,2.88
2023-03-06T20:41:24.802Z,2.91
2023-03-06T20:43:55.520Z,2.82
2023-03-06T20:46:26.527Z,2.83
2023-03-06T20:48:58.327Z,2.85
2023-03-06T20:51:36.099Z,2.84
2023-03-06T20:54:06.612Z,2.94
2023-03-06T20:56:39.924Z,2.93
2023-03-06T20:59:10.740Z,2.96
2023-03-06T21:01:43.710Z,2.91
2023-03-06T21:04:16.724Z,2.85
2023-03-06T21:06:50.190Z,2.85
2023-03-06T21:09:20.691Z,2.89
2023-03-06T21:11:50.957Z,2.90
2023-03-06T21:14:21.139Z,2.87
2023-03-06T21:16:51.278Z,2.89
2023-03-06T21:19:21.511Z,2.87
2023-03-06T21:21:54.448Z,2.90
2023-03-06T21:24:24.566Z,2.88
2023-03-06T21:26:54.606Z,2.83
2023-03-06T21:29:24.600Z,2.74
2023-03-06T21:31:55.084Z,2.81
2023-03-06T21:34:25.596Z,2.74
2023-03-06T21:36:58.285Z,2.79
2023-03-06T21:39:28.265Z,2.78
2023-03-06T21:41:58.452Z,2.75
2023-03-06T21:44:28.536Z,2.79
2023-03-06T21:46:58.561Z,2.71
2023-03-06T21:49:29.703Z,2.70
2023-03-06T21:52:02.575Z,2.76
2023-03-06T21:54:32.824Z,2.71
2023-03-06T21:57:02.894Z,2.69
2023-03-06T21:59:33.253Z,2.75
2023-03-06T22:02:03.535Z,2.71
2023-03-06T22:04:33.910Z,2.73
2023-03-06T22:07:06.604Z,2.68
2023-03-06T22:09:37.746Z,2.68
2023-03-06T22:12:08.504Z,2.70
2023-03-06T22:14:39.007Z,2.72
2023-03-06T22:17:09.042Z,2.71
2023-03-06T22:19:39.181Z,2.57
2023-03-06T22:22:12.025Z,2.74
2023-03-06T22:24:42.198Z,2.73
2023-03-06T22:27:12.384Z,2.74
2023-03-06T22:29:42.507Z,2.69
2023-03-06T22:32:13.014Z,2.60
2023-03-06T22:34:43.112Z,2.57
2023-03-06T22:37:16.269Z,2.62
2023-03-06T22:39:46.436Z,2.68
2023-03-06T22:42:16.568Z,2.60
2023-03-06T22:44:46.951Z,2.55
2023-03-06T22:47:17.083Z,2.65
2023-03-06T22:49:47.739Z,2.64
2023-03-06T22:52:20.386Z,2.69
2023-03-06T22:54:50.369Z,2.65
2023-03-06T22:57:20.529Z,2.65
2023-03-06T22:59:50.569Z,2.65
2023-03-06T23:02:20.611Z,2.67
2023-03-06T23:04:53.994Z,2.66
2023-03-06T23:07:26.972Z,2.65
2023-03-06T23:10:03.868Z,2.72
2023-03-06T23:12:52.824Z,2.79
2023-03-06T23:15:41.716Z,2.75
2023-03-06T23:18:31.552Z,2.70
2023-03-06T23:21:22.830Z,2.73
2023-03-06T23:24:13.670Z,2.87
2023-03-06T23:26:43.690Z,2.84
2023-03-06T23:29:13.860Z,2.51
2023-03-06T23:31:43.984Z,2.61
2023-03-06T23:34:14.683Z,2.65
2023-03-06T23:36:44.661Z,2.61
2023-03-06T23:39:17.749Z,2.66
2023-03-06T23:41:47.912Z,2.72
2023-03-06T23:44:18.007Z,2.62
2023-03-06T23:46:48.173Z,2.53
2023-03-06T23:49:19.553Z,2.64
2023-03-06T23:51:51.511Z,2.53
2023-03-06T23:54:24.675Z,2.44
2023-03-06T23:56:55.077Z,2.41
2023-03-06T23:59:25.207Z,2.33
